createdAt,value
2024-03-28T00:01:11.054Z,14.96
2024-03-28T01:52:21.456Z,14.21
2024-03-28T01:54:49.964Z,14.26
2024-03-28T01:57:19.098Z,14.29
2024-03-28T01:59:47.629Z,14.31
2024-03-28T02:02:15.969Z,14.30
2024-03-28T02:04:44.195Z,14.32
2024-03-28T02:07:11.892Z,14.35
2024-03-28T02:09:39.681Z,14.38
2024-03-28T02:12:09.871Z,14.42
2024-03-28T02:14:38.983Z,14.42
2024-03-28T02:17:07.476Z,14.41
2024-03-28T02:19:37.898Z,14.26
2024-03-28T02:22:05.608Z,14.19
2024-03-28T02:24:33.943Z,14.19
2024-03-28T02:27:01.745Z,14.13
2024-03-28T02:29:30.087Z,14.14
2024-03-28T02:31:57.785Z,14.15
2024-03-28T02:34:25.543Z,14.16
2024-03-28T02:36:53.115Z,14.13
2024-03-28T02:39:20.792Z,14.11
2024-03-28T02:41:48.454Z,14.13
2024-03-28T02:44:16.096Z,14.16
2024-03-28T02:46:44.871Z,14.15
2024-03-28T02:53:23.167Z,14.15
2024-03-28T02:55:51.990Z,14.11
2024-03-28T02:58:21.230Z,14.09
2024-03-28T03:00:51.338Z,14.00
2024-03-28T03:03:19.871Z,13.94
2024-03-28T03:05:50.778Z,13.92
2024-03-28T03:08:18.730Z,13.92
2024-03-28T03:10:46.833Z,13.93
2024-03-28T03:13:14.842Z,13.96
2024-03-28T03:15:52.477Z,13.98
2024-03-28T03:18:26.830Z,14.05
2024-03-28T03:21:02.477Z,14.02
2024-03-28T03:23:38.760Z,13.95
2024-03-28T03:26:35.904Z,13.93
2024-03-28T03:29:22.433Z,13.95
2024-03-28T03:32:11.135Z,13.97
2024-03-28T03:34:43.370Z,14.01
2024-03-28T03:37:22.059Z,14.06
2024-03-28T03:39:57.912Z,14.10
2024-03-28T03:42:25.678Z,14.14
2024-03-28T03:44:53.567Z,14.17
2024-03-28T03:47:21.318Z,14.18
2024-03-28T03:49:50.020Z,14.20
2024-03-28T03:52:17.627Z,14.23
2024-03-28T03:54:45.901Z,14.25
2024-03-28T03:57:13.707Z,14.26
2024-03-28T03:59:41.469Z,14.25
2024-03-28T04:02:09.636Z,14.24
2024-03-28T04:04:38.261Z,14.25
2024-03-28T04:07:07.371Z,14.22
2024-03-28T04:09:36.096Z,14.21
2024-03-28T04:12:03.939Z,14.19
2024-03-28T04:14:32.297Z,14.19
2024-03-28T04:17:00.083Z,14.19
2024-03-28T04:19:28.298Z,14.18
2024-03-28T04:21:56.978Z,14.17
2024-03-28T04:24:24.891Z,14.18
2024-03-28T04:26:54.430Z,14.19
2024-03-28T04:29:22.143Z,14.19
2024-03-28T04:31:49.752Z,14.19
2024-03-28T04:34:17.553Z,14.17
2024-03-28T04:36:45.211Z,14.14
2024-03-28T04:39:16.121Z,14.10
2024-03-28T04:41:43.671Z,14.06
2024-03-28T04:44:12.051Z,13.92
2024-03-28T04:46:39.679Z,13.76
2024-03-28T04:49:07.320Z,13.68
2024-03-28T04:51:34.969Z,13.64
2024-03-28T04:54:02.673Z,13.64
2024-03-28T04:56:30.347Z,13.65
2024-03-28T04:58:58.088Z,13.65
2024-03-28T05:01:25.756Z,13.63
2024-03-28T05:03:53.722Z,13.64
2024-03-28T05:06:21.351Z,13.68
2024-03-28T05:08:50.657Z,13.74
2024-03-28T05:11:19.228Z,13.79
2024-03-28T05:13:47.711Z,13.83
2024-03-28T05:16:16.303Z,13.86
2024-03-28T05:18:44.714Z,13.89
2024-03-28T05:21:12.906Z,13.90
2024-03-28T05:23:41.331Z,13.91
2024-03-28T05:26:09.099Z,13.91
2024-03-28T05:28:37.809Z,13.88
2024-03-28T05:31:15.209Z,13.83
2024-03-28T05:33:43.057Z,13.83
2024-03-28T05:36:12.328Z,13.85
2024-03-28T05:38:39.901Z,13.89
2024-03-28T05:41:07.634Z,13.90
2024-03-28T05:43:35.245Z,13.92
2024-03-28T05:46:10.962Z,13.93
2024-03-28T05:48:38.744Z,13.94
2024-03-28T05:51:06.371Z,13.97
2024-03-28T05:53:34.653Z,13.97
2024-03-28T05:56:02.446Z,13.96
2024-03-28T05:58:30.355Z,13.96
2024-03-28T06:01:00.903Z,13.96
2024-03-28T06:03:28.939Z,13.93
2024-03-28T06:05:57.444Z,13.91
2024-03-28T06:08:27.324Z,13.92
2024-03-28T06:11:00.549Z,13.94
2024-03-28T06:13:34.230Z,13.94
2024-03-28T06:16:02.728Z,13.96
2024-03-28T06:18:35.465Z,13.98
2024-03-28T06:21:05.733Z,14.01
2024-03-28T06:23:34.569Z,14.03
2024-03-28T06:26:03.787Z,14.05
2024-03-28T06:28:32.541Z,14.08
2024-03-28T06:31:01.064Z,14.11
2024-03-28T06:33:31.157Z,14.13
2024-03-28T06:35:59.926Z,14.12
2024-03-28T06:38:30.915Z,14.16
2024-03-28T06:41:00.484Z,14.20
2024-03-28T06:43:28.308Z,14.24
2024-03-28T06:45:56.656Z,14.28
2024-03-28T06:48:25.375Z,14.31
2024-03-28T06:50:52.970Z,14.35
2024-03-28T06:53:20.754Z,14.40
2024-03-28T06:55:58.915Z,14.44
2024-03-28T06:58:26.864Z,14.46
2024-03-28T07:01:03.343Z,14.47
2024-03-28T07:03:31.020Z,14.47
2024-03-28T07:05:59.144Z,14.46
2024-03-28T07:08:28.360Z,14.48
2024-03-28T07:10:56.300Z,14.52
2024-03-28T07:13:25.571Z,14.58
2024-03-28T07:15:53.199Z,14.62
2024-03-28T07:18:20.988Z,14.66
2024-03-28T07:20:49.491Z,14.73
2024-03-28T07:23:17.155Z,14.79
2024-03-28T07:25:44.797Z,14.82
2024-03-28T07:28:12.539Z,14.84
2024-03-28T07:30:43.015Z,14.87
2024-03-28T07:33:11.636Z,14.91
2024-03-28T07:35:39.222Z,14.95
2024-03-28T07:38:07.573Z,14.98
2024-03-28T07:40:36.534Z,15.02
2024-03-28T07:43:06.711Z,15.05
2024-03-28T07:45:37.381Z,15.09
2024-03-28T07:48:09.331Z,15.11
2024-03-28T07:50:39.141Z,15.14
2024-03-28T07:53:06.944Z,15.17
2024-03-28T07:55:34.631Z,15.18
2024-03-28T07:58:02.615Z,15.21
2024-03-28T08:00:33.340Z,15.23
2024-03-28T08:03:16.738Z,15.26
2024-03-28T08:05:44.929Z,15.29
2024-03-28T08:08:12.717Z,15.31
2024-03-28T08:10:40.764Z,15.32
2024-03-28T08:13:08.354Z,15.34
2024-03-28T08:15:36.053Z,15.37
2024-03-28T08:18:04.765Z,15.42
2024-03-28T08:20:32.311Z,15.48
2024-03-28T08:22:59.912Z,15.52
2024-03-28T08:25:27.649Z,15.57
2024-03-28T08:27:57.748Z,15.64
2024-03-28T08:30:26.774Z,15.69
2024-03-28T08:32:56.496Z,15.72
2024-03-28T08:35:26.210Z,15.75
2024-03-28T08:37:55.233Z,15.79
2024-03-28T08:40:23.354Z,15.83
2024-03-28T08:42:51.031Z,15.89
2024-03-28T08:45:20.886Z,15.93
2024-03-28T08:47:48.566Z,15.98
2024-03-28T08:50:20.364Z,16.02
2024-03-28T08:52:48.272Z,16.06
2024-03-28T08:55:19.340Z,16.10
2024-03-28T08:57:46.975Z,16.13
2024-03-28T09:00:16.575Z,16.18
2024-03-28T09:02:44.510Z,16.21
2024-03-28T09:05:12.564Z,16.25
2024-03-28T09:07:42.345Z,16.29
2024-03-28T09:10:19.328Z,16.33
2024-03-28T09:12:49.509Z,16.37
2024-03-28T09:15:17.870Z,16.42
2024-03-28T09:17:46.262Z,16.47
2024-03-28T09:20:14.855Z,16.51
2024-03-28T09:22:44.687Z,16.57
2024-03-28T09:25:14.867Z,16.62
2024-03-28T09:27:42.554Z,16.65
2024-03-28T09:30:12.269Z,16.70
2024-03-28T09:32:39.896Z,16.72
2024-03-28T09:35:09.657Z,16.77
2024-03-28T09:37:42.511Z,16.81
2024-03-28T09:40:14.907Z,16.85
2024-03-28T09:42:46.210Z,16.90
2024-03-28T09:45:15.860Z,16.95
2024-03-28T09:47:43.781Z,16.98
2024-03-28T09:50:19.376Z,17.03
2024-03-28T09:52:53.632Z,17.07
2024-03-28T09:55:26.747Z,17.14
2024-03-28T09:57:54.862Z,17.16
2024-03-28T10:00:23.894Z,17.21
2024-03-28T10:02:58.676Z,17.25
2024-03-28T10:05:28.147Z,17.30
2024-03-28T10:08:20.839Z,17.36
2024-03-28T10:11:06.705Z,17.38
2024-03-28T10:13:40.055Z,17.44
2024-03-28T10:16:08.072Z,17.49
2024-03-28T10:18:36.087Z,17.56
2024-03-28T10:21:04.275Z,17.62
2024-03-28T10:23:33.082Z,17.64
2024-03-28T10:26:05.514Z,17.65
2024-03-28T10:28:37.056Z,17.63
2024-03-28T10:31:05.934Z,17.59
2024-03-28T10:33:37.148Z,17.58
2024-03-28T10:36:06.205Z,17.58
2024-03-28T10:38:36.285Z,17.62
2024-03-28T10:41:06.807Z,17.63
2024-03-28T10:43:35.381Z,17.65
2024-03-28T10:46:19.496Z,17.68
2024-03-28T10:48:51.404Z,17.72
2024-03-28T10:51:23.550Z,17.77
2024-03-28T10:54:29.451Z,17.81
2024-03-28T10:56:58.833Z,17.87
2024-03-28T10:59:30.190Z,17.90
2024-03-28T11:01:59.769Z,17.91
2024-03-28T11:04:28.190Z,17.92
2024-03-28T11:06:59.756Z,17.96
2024-03-28T11:09:30.561Z,17.97
2024-03-28T11:11:58.475Z,17.97
2024-03-28T11:14:27.742Z,17.97
2024-03-28T11:17:06.749Z,17.98
2024-03-28T11:19:35.694Z,18.02
2024-03-28T11:22:03.520Z,18.06
2024-03-28T11:24:32.702Z,18.10
2024-03-28T11:27:02.327Z,18.14
2024-03-28T11:29:32.660Z,18.19
2024-03-28T11:32:03.803Z,18.27
2024-03-28T11:34:31.858Z,18.33
2024-03-28T11:36:59.452Z,18.39
2024-03-28T11:39:32.714Z,18.45
2024-03-28T11:42:00.336Z,18.52
2024-03-28T11:44:35.642Z,18.59
2024-03-28T11:47:05.488Z,18.63
2024-03-28T11:49:35.348Z,18.65
2024-03-28T11:52:06.813Z,18.69
2024-03-28T11:54:35.323Z,18.75
2024-03-28T11:57:04.927Z,18.82
2024-03-28T11:59:39.145Z,18.89
2024-03-28T12:02:06.915Z,18.95
2024-03-28T12:04:38.959Z,19.04
2024-03-28T12:07:06.599Z,19.12
2024-03-28T12:09:38.795Z,19.21
2024-03-28T12:12:08.533Z,19.32
2024-03-28T12:14:38.280Z,19.43
2024-03-28T12:17:09.157Z,19.54
2024-03-28T12:19:38.783Z,19.62
2024-03-28T12:22:07.557Z,19.68
2024-03-28T12:24:36.104Z,19.74
2024-03-28T12:29:45.954Z,19.82
2024-03-28T12:32:19.684Z,19.87
2024-03-28T12:34:54.926Z,19.92
2024-03-28T12:37:23.277Z,20.00
2024-03-28T12:39:51.599Z,20.08
2024-03-28T12:42:31.274Z,20.13
2024-03-28T12:47:41.646Z,20.25
2024-03-28T12:50:11.192Z,20.32
2024-03-28T12:52:39.145Z,20.39
2024-03-28T12:55:08.520Z,20.47
2024-03-28T12:57:40.725Z,20.52
2024-03-28T13:00:09.525Z,20.57
2024-03-28T13:02:40.771Z,20.62
2024-03-28T13:05:12.705Z,20.65
2024-03-28T13:07:44.146Z,20.67
2024-03-28T13:10:12.489Z,20.68
2024-03-28T13:12:41.533Z,20.69
2024-03-28T13:15:11.984Z,20.71
2024-03-28T13:17:40.168Z,20.74
2024-03-28T13:20:10.381Z,20.76
2024-03-28T13:22:43.386Z,20.75
2024-03-28T13:25:14.745Z,20.74
2024-03-28T13:27:45.187Z,20.72
2024-03-28T13:30:13.554Z,20.74
2024-03-28T13:32:42.855Z,20.76
2024-03-28T13:35:10.987Z,20.79
2024-03-28T13:37:41.426Z,20.83
2024-03-28T13:40:09.515Z,20.88
2024-03-28T13:42:40.115Z,20.96
2024-03-28T13:45:09.984Z,21.05
2024-03-28T13:47:38.514Z,21.11
2024-03-28T13:50:06.736Z,21.19
2024-03-28T13:52:34.360Z,21.26
2024-03-28T13:55:09.018Z,21.26
2024-03-28T13:57:49.507Z,21.24
2024-03-28T14:00:19.134Z,21.23
2024-03-28T14:02:47.003Z,21.17
2024-03-28T14:05:15.667Z,21.11
2024-03-28T14:07:43.774Z,21.09
2024-03-28T14:10:11.520Z,21.09
2024-03-28T14:12:40.937Z,21.10
2024-03-28T14:15:09.209Z,21.15
2024-03-28T14:17:36.822Z,21.24
2024-03-28T14:20:05.041Z,21.33
2024-03-28T14:22:32.621Z,21.42
2024-03-28T14:25:00.404Z,21.50
2024-03-28T14:27:28.299Z,21.56
2024-03-28T14:29:58.196Z,21.59
2024-03-28T14:32:30.963Z,21.61
2024-03-28T14:35:01.299Z,21.61
2024-03-28T14:37:29.247Z,21.62
2024-03-28T14:39:56.778Z,21.62
2024-03-28T14:42:24.377Z,21.60
2024-03-28T14:44:54.293Z,21.55
2024-03-28T14:47:21.994Z,21.51
2024-03-28T14:50:08.340Z,21.49
2024-03-28T14:52:37.768Z,21.50
2024-03-28T14:55:07.971Z,22.11
2024-03-28T14:57:36.486Z,24.36
2024-03-28T15:00:04.627Z,26.17
2024-03-28T15:02:32.527Z,27.26
2024-03-28T15:05:00.411Z,28.10
2024-03-28T15:07:28.299Z,28.31
2024-03-28T15:09:58.066Z,27.88
2024-03-28T15:12:26.891Z,27.24
2024-03-28T15:14:57.136Z,26.61
2024-03-28T15:17:26.029Z,25.97
2024-03-28T15:19:55.831Z,25.38
2024-03-28T15:22:23.489Z,24.90
2024-03-28T15:24:52.939Z,24.50
2024-03-28T15:27:21.746Z,24.12
2024-03-28T15:29:51.423Z,23.78
2024-03-28T15:32:19.794Z,23.47
2024-03-28T15:34:47.510Z,23.20
2024-03-28T15:37:19.272Z,22.95
2024-03-28T15:39:46.857Z,22.75
2024-03-28T15:42:16.302Z,22.57
2024-03-28T15:44:43.994Z,22.41
2024-03-28T15:47:11.914Z,22.27
2024-03-28T15:49:41.041Z,22.15
2024-03-28T15:52:10.016Z,22.02
2024-03-28T15:54:38.473Z,21.91
2024-03-28T15:57:07.897Z,21.80
2024-03-28T15:59:35.975Z,21.72
2024-03-28T16:02:04.358Z,21.62
2024-03-28T16:04:36.684Z,21.53
2024-03-28T16:07:07.858Z,21.43
2024-03-28T16:09:39.089Z,21.35
2024-03-28T16:12:09.312Z,21.27
2024-03-28T16:14:37.502Z,21.19
2024-03-28T16:17:07.922Z,21.10
2024-03-28T16:19:38.463Z,21.03
2024-03-28T16:22:06.142Z,20.95
2024-03-28T16:24:34.431Z,20.89
2024-03-28T16:27:04.032Z,20.82
2024-03-28T16:29:32.474Z,20.75
2024-03-28T16:32:02.090Z,20.69
2024-03-28T16:34:31.142Z,20.62
2024-03-28T16:37:00.284Z,20.55
2024-03-28T16:39:32.267Z,20.48
2024-03-28T16:42:02.697Z,20.40
2024-03-28T16:44:31.865Z,20.34
2024-03-28T16:46:59.936Z,20.27
2024-03-28T16:49:32.070Z,20.22
2024-03-28T16:52:02.853Z,20.18
2024-03-28T16:54:30.500Z,20.13
2024-03-28T16:56:58.723Z,20.08
2024-03-28T16:59:28.047Z,20.03
2024-03-28T17:01:56.245Z,19.98
2024-03-28T17:04:27.342Z,19.93
2024-03-28T17:06:56.303Z,19.90
2024-03-28T17:09:24.206Z,19.85
2024-03-28T17:11:52.704Z,19.80
2024-03-28T17:14:21.608Z,19.76
2024-03-28T17:16:50.451Z,19.72
2024-03-28T17:19:20.030Z,19.68
2024-03-28T17:21:48.438Z,19.64
2024-03-28T17:24:19.455Z,19.60
2024-03-28T17:26:49.023Z,19.57
2024-03-28T17:29:17.637Z,19.54
2024-03-28T17:31:52.762Z,19.51
2024-03-28T17:34:20.479Z,19.49
2024-03-28T17:36:50.547Z,19.46
2024-03-28T17:39:18.530Z,19.43
2024-03-28T17:41:51.760Z,19.43
2024-03-28T17:44:19.935Z,19.42
2024-03-28T17:46:48.826Z,19.40
2024-03-28T17:49:21.702Z,19.37
2024-03-28T17:51:50.683Z,19.34
2024-03-28T17:54:20.857Z,19.32
2024-03-28T17:56:49.523Z,19.30
2024-03-28T17:59:17.654Z,19.27
2024-03-28T18:01:45.669Z,19.24
2024-03-28T18:04:15.339Z,19.21
2024-03-28T18:06:43.505Z,19.17
2024-03-28T18:09:12.244Z,19.13
2024-03-28T18:11:40.068Z,19.10
2024-03-28T18:14:10.043Z,19.08
2024-03-28T18:16:40.677Z,19.06
2024-03-28T18:19:11.032Z,19.03
2024-03-28T18:21:41.139Z,19.01
2024-03-28T18:24:12.098Z,18.98
2024-03-28T18:26:40.376Z,18.96
2024-03-28T18:29:08.643Z,18.94
2024-03-28T18:31:38.135Z,18.94
2024-03-28T18:34:05.926Z,18.95
2024-03-28T18:36:35.777Z,18.95
2024-03-28T18:39:04.806Z,18.95
2024-03-28T18:41:32.674Z,18.97
2024-03-28T18:44:03.658Z,18.97
2024-03-28T18:46:36.119Z,18.95
2024-03-28T18:49:05.297Z,18.91
2024-03-28T18:51:33.194Z,18.87
2024-03-28T18:54:01.055Z,18.82
2024-03-28T18:56:29.826Z,18.78
2024-03-28T18:58:58.048Z,18.71
2024-03-28T19:01:29.540Z,18.67
2024-03-28T19:03:57.429Z,18.63
2024-03-28T19:06:29.553Z,18.58
2024-03-28T19:08:57.603Z,18.54
2024-03-28T19:11:25.489Z,18.51
2024-03-28T19:13:53.139Z,18.47
2024-03-28T19:16:20.832Z,18.41
2024-03-28T19:18:48.624Z,18.36
2024-03-28T19:21:17.832Z,18.32
2024-03-28T19:23:47.742Z,18.28
2024-03-28T19:26:15.933Z,18.25
2024-03-28T19:28:44.050Z,18.22
2024-03-28T19:31:11.776Z,18.19
2024-03-28T19:33:39.756Z,18.16
2024-03-28T19:36:08.985Z,18.14
2024-03-28T19:38:36.785Z,18.10
2024-03-28T19:41:08.651Z,18.08
2024-03-28T19:43:36.897Z,18.06
2024-03-28T19:46:08.252Z,18.04
2024-03-28T19:48:36.419Z,18.03
2024-03-28T19:51:08.179Z,18.01
2024-03-28T19:53:36.111Z,17.99
2024-03-28T19:56:08.308Z,17.98
2024-03-28T19:58:36.361Z,17.97
2024-03-28T20:01:05.308Z,17.95
2024-03-28T20:03:33.770Z,17.94
2024-03-28T20:06:01.563Z,17.93
2024-03-28T20:08:31.135Z,17.92
2024-03-28T20:10:59.011Z,17.92
2024-03-28T20:13:27.572Z,17.91
2024-03-28T20:15:57.613Z,17.90
2024-03-28T20:18:27.001Z,17.89
2024-03-28T20:20:55.126Z,17.89
2024-03-28T20:23:23.534Z,17.88
2024-03-28T20:28:34.833Z,17.88
2024-03-28T20:31:05.170Z,17.88
2024-03-28T20:33:33.350Z,17.87
2024-03-28T20:36:01.063Z,17.86
2024-03-28T20:38:28.877Z,17.86
2024-03-28T20:40:57.880Z,17.85
2024-03-28T20:43:25.847Z,17.85
2024-03-28T20:45:55.004Z,17.83
2024-03-28T20:48:22.582Z,17.83
2024-03-28T20:50:53.317Z,17.82
2024-03-28T20:53:21.233Z,17.81
2024-03-28T20:55:50.728Z,17.82
2024-03-28T20:58:18.803Z,17.83
2024-03-28T21:00:46.448Z,17.83
2024-03-28T21:03:14.045Z,17.82
2024-03-28T21:05:42.052Z,17.80
2024-03-28T21:08:28.367Z,17.81
2024-03-28T21:11:00.861Z,17.82
2024-03-28T21:13:31.138Z,17.83
2024-03-28T21:15:58.613Z,17.83
2024-03-28T21:18:27.413Z,17.82
2024-03-28T21:20:56.160Z,17.81
2024-03-28T21:23:24.310Z,17.79
2024-03-28T21:25:53.408Z,17.78
2024-03-28T21:28:21.195Z,17.76
2024-03-28T21:30:48.916Z,17.74
2024-03-28T21:33:16.735Z,17.71
2024-03-28T21:35:45.720Z,17.69
2024-03-28T21:38:15.887Z,17.67
2024-03-28T21:40:54.160Z,17.65
2024-03-28T21:43:21.886Z,17.64
2024-03-28T21:45:57.923Z,17.62
2024-03-28T21:48:27.171Z,17.60
2024-03-28T21:50:54.918Z,17.59
2024-03-28T21:53:23.178Z,17.57
2024-03-28T21:56:08.225Z,17.55
2024-03-28T21:58:36.951Z,17.52
2024-03-28T22:01:09.364Z,17.49
2024-03-28T22:03:41.255Z,17.46
2024-03-28T22:06:09.634Z,17.43
2024-03-28T22:08:39.852Z,17.40
2024-03-28T22:11:14.039Z,17.37
2024-03-28T22:13:44.035Z,17.35
2024-03-28T22:16:13.808Z,17.32
2024-03-28T22:18:42.211Z,17.30
2024-03-28T22:21:12.639Z,17.26
2024-03-28T22:23:40.210Z,17.24
2024-03-28T22:26:07.807Z,17.22
2024-03-28T22:28:36.236Z,17.21
2024-03-28T22:31:04.637Z,17.19
2024-03-28T22:33:32.197Z,17.18
2024-03-28T22:36:01.275Z,17.16
2024-03-28T22:38:29.298Z,17.15
2024-03-28T22:40:58.409Z,17.14
2024-03-28T22:43:27.337Z,17.12
2024-03-28T22:46:00.590Z,17.11
2024-03-28T22:48:28.534Z,17.09
2024-03-28T22:50:57.250Z,17.08
2024-03-28T22:53:24.835Z,17.07
2024-03-28T22:55:59.681Z,17.05
2024-03-28T22:58:27.631Z,17.04
2024-03-28T23:00:57.419Z,17.04
2024-03-28T23:03:27.012Z,17.03
2024-03-28T23:06:05.438Z,17.02
2024-03-28T23:08:34.367Z,17.01
2024-03-28T23:11:02.724Z,16.99
2024-03-28T23:13:31.822Z,16.98
2024-03-28T23:16:00.748Z,16.98
2024-03-28T23:18:28.641Z,16.97
2024-03-28T23:20:56.222Z,16.96
2024-03-28T23:23:24.811Z,16.96
2024-03-28T23:25:53.211Z,16.95
2024-03-28T23:28:21.052Z,16.95
2024-03-28T23:30:48.852Z,16.94
2024-03-28T23:33:16.475Z,16.93
2024-03-28T23:35:44.242Z,16.90
2024-03-28T23:38:11.888Z,16.89
2024-03-28T23:40:39.897Z,16.88
2024-03-28T23:43:08.488Z,16.88
2024-03-28T23:45:37.251Z,16.88
2024-03-28T23:48:05.866Z,16.87
2024-03-28T23:50:33.835Z,16.86
2024-03-28T23:53:04.165Z,16.85
2024-03-28T23:55:34.651Z,16.85
2024-03-28T23:58:03.081Z,16.85
